createdAt,value
2022-10-19T00:00:33.198Z,19.04
2022-10-19T00:02:59.678Z,19.02
2022-10-19T00:05:26.197Z,19.02
2022-10-19T00:07:52.860Z,18.98
2022-10-19T00:10:19.366Z,18.92
2022-10-19T00:12:45.889Z,18.91
2022-10-19T00:15:12.482Z,18.91
2022-10-19T00:17:38.977Z,18.90
2022-10-19T00:20:05.901Z,18.88
2022-10-19T00:22:32.787Z,18.86
2022-10-19T00:24:59.482Z,18.86
2022-10-19T00:27:26.003Z,18.82
2022-10-19T00:29:53.056Z,18.79
2022-10-19T00:32:19.643Z,18.79
2022-10-19T00:34:46.164Z,18.78
2022-10-19T00:37:12.641Z,18.79
2022-10-19T00:39:39.614Z,18.76
2022-10-19T00:42:06.334Z,18.74
2022-10-19T00:44:32.766Z,18.73
2022-10-19T00:47:01.967Z,18.74
2022-10-19T00:49:30.542Z,18.73
2022-10-19T00:52:01.218Z,18.70
2022-10-19T00:54:28.243Z,18.69
2022-10-19T00:56:57.460Z,18.70
2022-10-19T00:59:25.286Z,18.65
2022-10-19T01:01:52.699Z,18.64
2022-10-19T01:04:21.913Z,18.64
2022-10-19T01:06:48.530Z,18.59
2022-10-19T01:09:15.059Z,18.59
2022-10-19T01:11:54.067Z,18.57
2022-10-19T01:14:33.093Z,18.55
2022-10-19T01:17:11.657Z,18.50
2022-10-19T01:19:56.897Z,18.46
2022-10-19T01:22:48.169Z,18.47
2022-10-19T01:25:21.678Z,18.45
2022-10-19T01:27:57.812Z,18.46
2022-10-19T01:30:45.953Z,18.41
2022-10-19T01:33:18.805Z,18.38
2022-10-19T01:36:04.333Z,18.35
2022-10-19T01:38:38.537Z,18.36
2022-10-19T01:41:11.395Z,18.36
2022-10-19T01:44:01.969Z,18.38
2022-10-19T01:46:41.308Z,18.39
2022-10-19T01:49:13.100Z,18.26
2022-10-19T01:51:45.045Z,18.32
2022-10-19T01:54:14.313Z,18.30
2022-10-19T01:56:43.171Z,18.31
2022-10-19T01:59:11.033Z,18.30
2022-10-19T02:01:41.211Z,18.22
2022-10-19T02:04:08.159Z,18.33
2022-10-19T02:06:35.565Z,18.27
2022-10-19T02:09:02.112Z,18.23
2022-10-19T02:11:29.269Z,18.26
2022-10-19T02:13:59.549Z,18.29
2022-10-19T02:16:41.083Z,18.26
2022-10-19T02:19:08.859Z,18.25
2022-10-19T02:21:35.688Z,18.22
2022-10-19T02:24:02.216Z,18.23
2022-10-19T02:26:28.809Z,18.25
2022-10-19T02:28:56.047Z,18.20
2022-10-19T02:31:22.971Z,18.18
2022-10-19T02:33:49.559Z,18.12
2022-10-19T02:36:16.167Z,18.06
2022-10-19T02:38:42.781Z,18.11
2022-10-19T02:41:17.284Z,18.08
2022-10-19T02:43:47.287Z,18.05
2022-10-19T02:46:20.377Z,18.05
2022-10-19T02:48:47.238Z,18.04
2022-10-19T02:51:39.837Z,18.00
2022-10-19T02:54:08.151Z,18.03
2022-10-19T02:56:35.415Z,17.96
2022-10-19T02:59:02.366Z,17.94
2022-10-19T03:01:28.944Z,17.95
2022-10-19T03:03:55.467Z,17.92
2022-10-19T03:06:22.122Z,17.88
2022-10-19T03:08:48.597Z,17.86
2022-10-19T03:11:15.126Z,17.78
2022-10-19T03:13:42.261Z,17.80
2022-10-19T03:16:10.766Z,17.78
2022-10-19T03:18:37.204Z,17.79
2022-10-19T03:21:05.882Z,17.65
2022-10-19T03:23:32.498Z,17.75
2022-10-19T03:25:58.987Z,17.75
2022-10-19T03:28:25.552Z,17.68
2022-10-19T03:30:52.115Z,17.76
2022-10-19T03:33:18.678Z,17.69
2022-10-19T03:35:45.236Z,17.75
2022-10-19T03:38:11.843Z,17.64
2022-10-19T03:40:39.672Z,17.64
2022-10-19T03:43:06.449Z,17.64
2022-10-19T03:45:32.992Z,17.66
2022-10-19T03:47:59.500Z,17.60
2022-10-19T03:50:26.088Z,17.64
2022-10-19T03:52:52.591Z,17.61
2022-10-19T03:55:19.115Z,17.58
2022-10-19T03:57:45.623Z,17.37
2022-10-19T04:00:12.789Z,17.52
2022-10-19T04:02:39.214Z,17.49
2022-10-19T04:05:06.323Z,17.49
2022-10-19T04:07:33.113Z,17.44
2022-10-19T04:09:59.850Z,17.46
2022-10-19T04:12:26.333Z,17.44
2022-10-19T04:14:57.278Z,17.49
2022-10-19T04:17:24.794Z,17.42
2022-10-19T04:19:51.281Z,17.43
2022-10-19T04:22:17.774Z,17.37
2022-10-19T04:24:44.265Z,17.39
2022-10-19T04:27:10.792Z,17.39
2022-10-19T04:29:37.321Z,17.37
2022-10-19T04:32:03.810Z,17.38
2022-10-19T04:34:30.305Z,17.38
2022-10-19T04:36:59.232Z,17.40
2022-10-19T04:39:25.762Z,17.33
2022-10-19T04:41:52.274Z,17.39
2022-10-19T04:44:19.743Z,17.37
2022-10-19T04:46:46.298Z,17.36
2022-10-19T04:49:16.377Z,17.35
2022-10-19T04:51:45.944Z,17.34
2022-10-19T04:54:12.482Z,17.32
2022-10-19T04:56:39.561Z,17.16
2022-10-19T04:59:06.077Z,17.25
2022-10-19T05:01:32.599Z,17.21
2022-10-19T05:04:01.026Z,17.22
2022-10-19T05:06:27.617Z,17.21
2022-10-19T05:08:54.484Z,17.17
2022-10-19T05:11:21.187Z,17.12
2022-10-19T05:13:48.300Z,17.10
2022-10-19T05:16:17.918Z,17.12
2022-10-19T05:18:51.653Z,17.07
2022-10-19T05:21:19.250Z,17.13
2022-10-19T05:23:45.845Z,17.13
2022-10-19T05:26:22.899Z,17.14
2022-10-19T05:28:50.858Z,17.11
2022-10-19T05:31:19.698Z,17.12
2022-10-19T05:33:46.852Z,17.13
2022-10-19T05:36:32.294Z,17.13
2022-10-19T05:39:01.981Z,17.06
2022-10-19T05:41:28.753Z,17.10
2022-10-19T05:43:57.378Z,17.10
2022-10-19T05:46:25.114Z,17.11
2022-10-19T05:48:51.698Z,17.12
2022-10-19T05:51:20.113Z,17.13
2022-10-19T05:53:46.846Z,17.13
2022-10-19T05:56:19.351Z,17.12
2022-10-19T05:58:46.132Z,17.10
2022-10-19T06:01:12.797Z,17.09
2022-10-19T06:03:39.750Z,17.05
2022-10-19T06:06:07.889Z,17.07
2022-10-19T06:08:34.680Z,17.09
2022-10-19T06:11:28.711Z,16.98
2022-10-19T06:13:56.833Z,17.13
2022-10-19T06:16:24.401Z,17.13
2022-10-19T06:18:52.287Z,17.16
2022-10-19T06:21:20.927Z,17.16
2022-10-19T06:23:55.186Z,17.19
2022-10-19T06:26:22.017Z,17.17
2022-10-19T06:28:49.472Z,17.25
2022-10-19T06:31:16.846Z,17.26
2022-10-19T06:33:47.230Z,17.34
2022-10-19T06:36:18.737Z,17.27
2022-10-19T06:38:45.592Z,17.41
2022-10-19T06:41:12.451Z,17.43
2022-10-19T06:43:39.272Z,17.48
2022-10-19T06:46:11.610Z,17.60
2022-10-19T06:48:38.515Z,17.59
2022-10-19T06:51:07.422Z,17.58
2022-10-19T06:53:37.142Z,17.60
2022-10-19T06:56:05.989Z,17.62
2022-10-19T06:58:39.113Z,17.65
2022-10-19T07:01:10.125Z,17.68
2022-10-19T07:03:37.637Z,17.73
2022-10-19T07:06:06.920Z,17.72
2022-10-19T07:08:35.762Z,17.60
2022-10-19T07:11:05.436Z,17.72
2022-10-19T07:13:32.058Z,17.77
2022-10-19T07:16:06.864Z,17.78
2022-10-19T07:18:34.743Z,17.83
2022-10-19T07:21:04.127Z,17.89
2022-10-19T07:23:31.977Z,17.87
2022-10-19T07:26:03.706Z,17.93
2022-10-19T07:28:30.927Z,17.90
2022-10-19T07:30:57.571Z,17.97
2022-10-19T07:33:24.218Z,17.99
2022-10-19T07:35:50.871Z,17.96
2022-10-19T07:38:17.487Z,18.04
2022-10-19T07:40:46.552Z,18.08
2022-10-19T07:43:14.220Z,18.10
2022-10-19T07:45:40.831Z,18.13
2022-10-19T07:48:07.420Z,18.12
2022-10-19T07:50:35.439Z,18.18
2022-10-19T07:53:05.155Z,18.14
2022-10-19T07:55:34.101Z,18.23
2022-10-19T07:58:01.976Z,18.26
2022-10-19T08:00:29.657Z,18.30
2022-10-19T08:03:19.345Z,18.33
2022-10-19T08:05:42.982Z,18.37
2022-10-19T08:08:11.988Z,18.41
2022-10-19T08:10:38.688Z,18.45
2022-10-19T08:13:05.228Z,18.47
2022-10-19T08:15:32.498Z,18.54
2022-10-19T08:17:59.933Z,18.59
2022-10-19T08:20:27.077Z,18.56
2022-10-19T08:22:56.533Z,18.61
2022-10-19T08:25:25.651Z,18.63
2022-10-19T08:27:52.641Z,18.66
2022-10-19T08:30:19.353Z,18.69
2022-10-19T08:32:45.978Z,18.74
2022-10-19T08:35:12.594Z,18.73
2022-10-19T08:37:44.690Z,18.81
2022-10-19T08:40:24.533Z,18.80
2022-10-19T08:43:17.977Z,18.82
2022-10-19T08:45:51.464Z,18.87
2022-10-19T08:48:32.942Z,18.95
2022-10-19T08:51:00.346Z,19.00
2022-10-19T08:53:41.436Z,19.01
2022-10-19T08:59:26.738Z,19.10
2022-10-19T09:02:03.596Z,19.13
2022-10-19T09:04:37.226Z,19.18
2022-10-19T09:07:10.064Z,19.22
2022-10-19T09:09:43.163Z,19.22
2022-10-19T09:12:11.996Z,19.29
2022-10-19T09:14:43.945Z,19.31
2022-10-19T09:17:13.929Z,19.37
2022-10-19T09:19:40.624Z,19.38
2022-10-19T09:22:13.277Z,19.42
2022-10-19T09:24:53.189Z,19.45
2022-10-19T09:27:28.906Z,19.48
2022-10-19T09:29:57.982Z,19.55
2022-10-19T09:32:44.998Z,19.60
2022-10-19T09:35:50.159Z,19.61
2022-10-19T09:38:16.877Z,19.64
2022-10-19T09:40:44.072Z,19.70
2022-10-19T09:43:20.971Z,19.73
2022-10-19T09:45:58.768Z,19.81
2022-10-19T09:48:44.079Z,19.83
2022-10-19T09:51:13.938Z,19.83
2022-10-19T09:53:50.430Z,19.90
2022-10-19T09:56:23.131Z,19.94
2022-10-19T09:58:51.818Z,19.98
2022-10-19T10:01:43.193Z,20.00
2022-10-19T10:04:13.921Z,20.03
2022-10-19T10:06:41.328Z,20.06
2022-10-19T10:09:08.060Z,20.08
2022-10-19T10:11:38.142Z,20.13
2022-10-19T10:14:29.045Z,20.17
2022-10-19T10:17:04.498Z,20.20
2022-10-19T10:19:32.716Z,20.27
2022-10-19T10:22:00.186Z,20.30
2022-10-19T10:24:31.302Z,20.33
2022-10-19T10:27:03.852Z,20.37
2022-10-19T10:29:35.150Z,20.45
2022-10-19T10:32:01.652Z,20.51
2022-10-19T10:34:53.118Z,20.57
2022-10-19T10:37:28.483Z,20.58
2022-10-19T10:39:59.176Z,20.61
2022-10-19T10:42:32.813Z,20.69
2022-10-19T10:44:59.813Z,20.73
2022-10-19T10:47:28.245Z,20.73
2022-10-19T10:50:02.700Z,20.77
2022-10-19T10:52:33.603Z,20.80
2022-10-19T10:55:16.806Z,20.84
2022-10-19T10:57:49.977Z,20.88
2022-10-19T11:00:19.593Z,20.92
2022-10-19T11:02:54.121Z,21.01
2022-10-19T11:05:33.794Z,21.05
2022-10-19T11:08:09.781Z,21.13
2022-10-19T11:10:52.580Z,21.30
2022-10-19T11:13:34.338Z,21.38
2022-10-19T11:16:09.056Z,21.41
2022-10-19T11:18:42.743Z,21.50
2022-10-19T11:21:11.706Z,21.54
2022-10-19T11:23:59.555Z,21.68
2022-10-19T11:26:41.855Z,21.79
2022-10-19T11:29:37.805Z,21.89
2022-10-19T11:32:15.827Z,21.92
2022-10-19T11:35:01.254Z,21.97
2022-10-19T11:37:32.009Z,22.06
2022-10-19T11:40:21.859Z,22.15
2022-10-19T11:43:03.219Z,22.25
2022-10-19T11:45:35.642Z,22.31
2022-10-19T11:48:19.200Z,22.47
2022-10-19T11:50:58.604Z,22.60
2022-10-19T11:53:33.660Z,22.67
2022-10-19T11:56:06.390Z,22.77
2022-10-19T11:58:54.166Z,22.87
2022-10-19T12:01:26.533Z,22.93
2022-10-19T12:04:19.330Z,23.08
2022-10-19T12:06:54.392Z,23.11
2022-10-19T12:09:37.499Z,23.33
2022-10-19T12:12:22.848Z,23.49
2022-10-19T12:14:53.097Z,23.59
2022-10-19T12:17:32.412Z,23.75
2022-10-19T12:20:03.915Z,23.98
2022-10-19T12:22:31.010Z,24.02
2022-10-19T12:24:59.759Z,24.21
2022-10-19T12:27:40.227Z,24.31
2022-10-19T12:30:12.931Z,24.49
2022-10-19T12:32:52.007Z,24.71
2022-10-19T12:35:39.171Z,24.96
2022-10-19T12:38:35.707Z,24.99
2022-10-19T12:41:24.697Z,25.04
2022-10-19T12:43:57.166Z,25.17
2022-10-19T12:46:41.098Z,25.37
2022-10-19T12:49:26.555Z,25.42
2022-10-19T12:51:54.556Z,25.58
2022-10-19T12:54:26.707Z,25.67
2022-10-19T12:56:55.786Z,26.08
2022-10-19T12:59:34.858Z,26.29
2022-10-19T13:02:05.027Z,26.04
2022-10-19T13:04:34.256Z,25.93
2022-10-19T13:07:08.492Z,26.02
2022-10-19T13:09:43.229Z,26.02
2022-10-19T13:12:19.652Z,26.13
2022-10-19T13:14:52.948Z,26.34
2022-10-19T13:17:36.624Z,26.72
2022-10-19T13:20:15.538Z,26.89
2022-10-19T13:22:44.958Z,26.90
2022-10-19T13:25:37.313Z,27.39
2022-10-19T13:28:06.941Z,27.34
2022-10-19T14:58:17.987Z,27.84
2022-10-19T15:00:47.898Z,26.74
2022-10-19T15:03:23.277Z,26.39
2022-10-19T15:05:52.682Z,26.14
2022-10-19T15:08:42.558Z,26.05
2022-10-19T15:11:25.106Z,26.36
2022-10-19T15:13:58.006Z,26.93
2022-10-19T15:16:39.715Z,27.41
2022-10-19T15:19:11.056Z,27.58
2022-10-19T15:21:37.634Z,27.84
2022-10-19T15:47:29.106Z,30.62
2022-10-19T15:49:56.140Z,29.88
2022-10-19T15:52:24.853Z,29.37
2022-10-19T15:54:53.851Z,28.85
2022-10-19T15:57:25.754Z,28.96
2022-10-19T15:59:53.274Z,28.33
2022-10-19T16:02:19.777Z,27.62
2022-10-19T16:04:46.271Z,27.23
2022-10-19T16:07:19.939Z,26.45
2022-10-19T16:09:46.493Z,26.06
2022-10-19T16:12:13.002Z,25.78
2022-10-19T16:14:39.562Z,25.62
2022-10-19T16:17:06.068Z,25.46
2022-10-19T16:19:32.651Z,25.33
2022-10-19T16:21:59.171Z,25.26
2022-10-19T16:24:25.732Z,25.00
2022-10-19T16:26:52.210Z,24.82
2022-10-19T16:29:18.845Z,24.85
2022-10-19T16:31:45.330Z,24.67
2022-10-19T16:34:11.881Z,24.57
2022-10-19T16:36:38.413Z,24.50
2022-10-19T16:39:05.070Z,24.40
2022-10-19T16:41:32.118Z,24.26
2022-10-19T16:43:58.867Z,24.27
2022-10-19T16:46:25.499Z,24.18
2022-10-19T16:48:52.894Z,24.07
2022-10-19T16:51:37.618Z,23.98
2022-10-19T16:54:06.319Z,24.04
2022-10-19T16:56:33.673Z,23.96
2022-10-19T16:59:03.017Z,23.84
2022-10-19T17:01:30.539Z,23.80
2022-10-19T17:03:57.477Z,23.72
2022-10-19T17:06:25.037Z,23.66
2022-10-19T17:09:29.879Z,23.69
2022-10-19T17:11:39.515Z,23.54
2022-10-19T17:14:08.307Z,23.62
2022-10-19T17:16:35.986Z,23.61
2022-10-19T17:19:03.668Z,23.57
2022-10-19T17:21:32.383Z,23.48
2022-10-19T17:24:01.188Z,23.40
2022-10-19T17:26:28.388Z,23.38
2022-10-19T17:28:55.984Z,23.31
2022-10-19T17:31:22.604Z,23.24
2022-10-19T17:33:49.762Z,23.15
2022-10-19T17:36:19.587Z,23.13
2022-10-19T17:38:46.720Z,23.07
2022-10-19T17:41:18.152Z,22.97
2022-10-19T17:43:46.621Z,22.93
2022-10-19T17:46:15.928Z,23.10
2022-10-19T17:48:43.426Z,23.00
2022-10-19T17:51:18.241Z,22.89
2022-10-19T17:53:46.193Z,22.91
2022-10-19T17:56:18.911Z,22.86
2022-10-19T17:58:45.738Z,22.66
2022-10-19T18:01:12.653Z,22.58
2022-10-19T18:03:39.852Z,22.49
2022-10-19T18:06:18.423Z,22.56
2022-10-19T18:08:47.590Z,22.44
2022-10-19T18:11:15.106Z,22.55
2022-10-19T18:13:42.379Z,22.43
2022-10-19T18:16:13.384Z,22.34
2022-10-19T18:18:41.910Z,22.46
2022-10-19T18:21:13.730Z,22.24
2022-10-19T18:23:40.573Z,22.31
2022-10-19T18:26:13.506Z,22.21
